Latest Weather Observations for Legendre Island

IDW60801

Issued at 8:04 am WST Friday 24 March 2017 (issued every 30 minutes, with the page automatically refreshed every 10 minutes)

About weather observations | Map of weather stations | Latest weather observations for WA | Other Formats
Station Details ID: 004095 Name: LEGENDRE ISLAND Lat: -20.36 Lon: 116.84 Height: 29.0 m
Data from the previous 72 hours. | See also: Recent months at Legendre Island
Date/Time
WST
Temp
°C
App
Temp
°C
Dew
Point
°C
Rel
Hum
%
Delta-T
°C
Wind Press
QNH
hPa
Press
MSL
hPa
Rain since
9am
mm
Dir  Spd
km/h
Gust
km/h
Spd
kts
Gust
kts
24/08:00am 27.4 29.4 27.4 100 0.0 SW 32 37 17 20 1005.9 1005.7 -
24/07:30am 27.5 29.4 27.5 100 0.0 SW 33 41 18 22 1005.4 1005.2 -
24/07:00am 27.3 29.0 27.3 100 0.0 SW 33 39 18 21 1005.1 1004.9 -
24/06:30am 27.0 28.7 27.0 100 0.0 SW 32 37 17 20 1004.7 1004.5 -
24/06:00am 27.2 28.8 27.2 100 0.0 SW 33 39 18 21 1004.4 1004.2 -
24/05:30am 27.3 29.2 27.3 100 0.0 SW 32 39 17 21 1004.2 1004.0 -
24/05:00am 27.4 29.7 27.4 100 0.0 SW 30 37 16 20 1004.1 1003.9 -
24/04:30am 27.3 29.2 27.3 100 0.0 SW 32 37 17 20 1003.8 1003.6 -
24/04:00am 27.5 28.6 27.5 100 0.0 WSW 37 44 20 24 1003.3 1003.1 -
24/03:30am 27.2 28.5 27.2 100 0.0 WSW 35 48 19 26 1003.4 1003.2 -
24/03:00am 28.3 30.0 28.3 100 0.0 W 37 46 20 25 1003.5 1003.3 -
24/02:30am 28.3 30.0 28.3 100 0.0 W 37 46 20 25 1003.7 1003.5 -
24/02:00am 28.2 29.4 28.2 100 0.0 W 39 46 21 25 1003.9 1003.7 -
24/01:30am 28.1 29.6 28.1 100 0.0 W 37 44 20 24 1004.0 1003.8 -
24/01:00am 28.0 29.4 28.0 100 0.0 W 37 44 20 24 1004.0 1003.8 -
24/12:30am 27.7 28.6 27.7 100 0.0 W 39 48 21 26 1004.0 1003.8 -
24/12:00am 27.4 28.0 27.4 100 0.0 WSW 39 48 21 26 1004.2 1004.0 -
 
Date/Time
WST
Temp
°C
App
Temp
°C
Dew
Point
°C
Rel
Hum
%
Delta-T
°C
Wind Press
QNH
hPa
Press
MSL
hPa
Rain since
9am
mm
Dir  Spd
km/h
Gust
km/h
Spd
kts
Gust
kts
23/11:30pm 27.9 29.7 27.9 100 0.0 WSW 35 43 19 23 1004.2 1004.0 -
23/11:00pm 27.4 29.7 27.4 100 0.0 WSW 30 39 16 21 1004.6 1004.4 -
23/10:30pm 27.0 28.5 27.0 100 0.0 WSW 33 39 18 21 1004.8 1004.6 -
23/10:00pm 27.0 29.1 27.0 100 0.0 WSW 30 35 16 19 1004.7 1004.5 -
23/09:30pm 27.0 29.1 27.0 100 0.0 WSW 30 35 16 19 1004.7 1004.5 -
23/09:00pm 27.0 29.1 27.0 100 0.0 WSW 30 35 16 19 1004.5 1004.3 -
23/08:30pm 26.9 28.5 26.9 100 0.0 SW 32 35 17 19 1004.2 1004.0 -
23/08:00pm 26.6 27.8 26.6 100 0.0 SW 33 37 18 20 1003.9 1003.7 -
23/07:30pm 26.6 30.3 26.6 100 0.0 SW 20 26 11 14 1003.6 1003.4 -
23/07:00pm 25.8 29.2 25.8 100 0.0 SW 19 26 10 14 1003.2 1003.0 -
23/06:30pm 25.3 29.1 25.3 100 0.0 SSW 15 19 8 10 1002.7 1002.5 -
23/06:00pm 24.7 28.1 24.7 100 0.0 SSE 15 22 8 12 1002.5 1002.3 -
23/05:30pm 27.4 31.8 27.4 100 0.0 S 19 24 10 13 1002.1 1001.9 -
23/05:00pm 28.5 33.2 27.8 96 0.5 S 19 26 10 14 1001.8 1001.6 -
23/04:30pm 28.6 32.5 27.4 93 0.9 S 22 28 12 15 1001.5 1001.3 -
23/04:00pm 29.0 33.8 28.1 95 0.7 S 20 24 11 13 1001.2 1001.0 -
23/03:30pm 28.4 32.8 28.2 99 0.1 S 22 30 12 16 1001.1 1000.9 -
23/03:00pm 29.3 33.1 27.3 89 1.4 S 22 30 12 16 1001.2 1001.0 -
23/02:30pm 28.6 31.9 27.7 95 0.7 S 26 35 14 19 1001.4 1001.2 -
23/02:00pm 28.9 32.1 28.0 95 0.7 S 28 37 15 20 1001.5 1001.3 -
23/01:30pm 27.9 29.8 27.6 98 0.2 S 33 43 18 23 1001.4 1001.2 -
23/01:00pm 28.2 30.3 27.1 94 0.8 S 30 43 16 23 1002.1 1001.9 -
23/12:30pm 28.1 31.0 28.1 100 0.0 S 30 37 16 20 1002.3 1002.1 -
23/12:00pm 27.8 30.8 27.8 100 0.0 S 28 35 15 19 1002.6 1002.4 -
23/11:30am 27.4 29.7 27.4 100 0.0 S 30 37 16 20 1002.8 1002.6 -
23/11:00am 27.2 29.8 27.2 100 0.0 SSE 28 39 15 21 1003.2 1003.0 -
23/10:30am 27.0 29.1 27.0 100 0.0 SSE 30 37 16 20 1003.2 1003.0 -
23/10:00am 26.8 27.8 26.8 100 0.0 SE 35 44 19 24 1003.4 1003.2 -
23/09:30am 26.7 28.0 26.7 100 0.0 SSE 33 41 18 22 1003.3 1003.1 -
23/09:00am 26.5 27.8 26.5 100 0.0 SSE 32 39 17 21 1003.2 1003.0 -
23/08:30am 26.4 28.1 26.4 100 0.0 SE 30 43 16 23 1003.4 1003.2 -
23/08:00am 26.2 28.1 26.2 100 0.0 SSE 28 35 15 19 1003.1 1002.9 -
23/07:30am 26.0 27.4 26.0 100 0.0 SSE 30 39 16 21 1002.7 1002.5 -
23/07:00am 25.8 26.5 25.8 100 0.0 SE 33 43 18 23 1002.6 1002.4 -
23/06:30am 25.8 26.7 25.8 100 0.0 SE 32 41 17 22 1002.5 1002.3 -
23/06:00am 25.8 26.7 25.8 100 0.0 SE 32 43 17 23 1002.4 1002.2 -
23/05:30am 25.8 26.1 25.8 100 0.0 SE 35 44 19 24 1002.2 1002.0 -
23/05:00am 25.8 26.7 25.8 100 0.0 SE 32 44 17 24 1002.1 1001.9 -
23/04:30am 25.8 26.1 25.8 100 0.0 SE 35 46 19 25 1002.2 1002.0 -
23/04:00am 25.8 27.1 25.8 100 0.0 SE 30 39 16 21 1002.3 1002.1 -
23/03:30am 25.8 27.8 25.8 100 0.0 SE 26 33 14 18 1002.4 1002.2 -
23/03:00am 25.9 28.0 25.9 100 0.0 SE 26 32 14 17 1002.2 1002.0 -
23/02:30am 25.9 28.0 25.9 100 0.0 SE 26 32 14 17 1002.3 1002.1 -
23/02:00am 26.1 27.2 26.1 100 0.0 ESE 32 44 17 24 1002.3 1002.1 -
23/01:30am 26.6 26.3 26.6 100 0.0 ESE 41 48 22 26 1002.3 1002.1 -
23/01:00am 26.3 24.9 26.3 100 0.0 ESE 46 54 25 29 1002.8 1002.6 -
23/12:30am 25.6 25.8 25.6 100 0.0 ESE 35 43 19 23 1003.5 1003.3 -
23/12:00am 25.4 25.8 25.4 100 0.0 SE 33 46 18 25 1003.7 1003.5 -
 
Date/Time
WST
Temp
°C
App
Temp
°C
Dew
Point
°C
Rel
Hum
%
Delta-T
°C
Wind Press
QNH
hPa
Press
MSL
hPa
Rain since
9am
mm
Dir  Spd
km/h
Gust
km/h
Spd
kts
Gust
kts
22/11:30pm 25.4 25.5 25.4 100 0.0 SE 35 44 19 24 1003.6 1003.4 -
22/11:00pm 25.4 25.8 25.4 100 0.0 SE 33 43 18 23 1004.4 1004.2 -
22/10:30pm 25.3 25.9 25.3 100 0.0 SE 32 43 17 23 1004.9 1004.7 -
22/10:00pm 25.8 26.5 25.8 100 0.0 ESE 33 43 18 23 1005.1 1004.9 -
22/09:30pm 26.4 26.7 26.4 100 0.0 ESE 37 43 20 23 1004.9 1004.7 -
22/09:00pm 26.3 26.9 26.3 100 0.0 E 35 41 19 22 1005.2 1005.0 -
22/08:30pm 26.4 27.1 26.4 100 0.0 E 35 43 19 23 1005.3 1005.1 -
22/08:00pm 26.2 27.2 26.2 100 0.0 ENE 33 37 18 20 1005.2 1005.0 -
22/07:30pm 25.0 26.1 25.0 100 0.0 ENE 28 33 15 18 1005.0 1004.8 -
22/07:05pm 25.2 23.0 25.2 100 0.0 ENE 46 65 25 35 1004.7 1004.5 -
22/07:00pm 25.2 21.9 25.2 100 0.0 ENE 52 65 28 35 1004.5 1004.3 -
22/06:55pm 25.2 25.1 25.2 100 0.0 E 35 63 19 34 1004.1 1003.9 -
22/06:53pm 26.3 28.3 26.3 100 0.0 E 28 59 15 32 1004.3 1004.1 -
22/06:30pm 26.6 29.2 26.6 100 0.0 ESE 26 39 14 21 1004.6 1004.4 -
22/06:00pm 27.0 29.8 27.0 100 0.0 E 26 30 14 16 1004.4 1004.2 -
22/05:30pm 26.7 28.6 26.7 100 0.0 E 30 35 16 19 1004.0 1003.8 -
22/05:00pm 26.2 26.0 26.2 100 0.0 ENE 39 44 21 24 1003.8 1003.6 -
22/04:51pm 26.5 25.8 26.5 100 0.0 ENE 43 50 23 27 1003.6 1003.4 -
22/04:30pm 27.4 29.4 27.4 100 0.0 E 32 39 17 21 1003.8 1003.6 -
22/04:00pm 26.9 30.8 26.9 100 0.0 E 20 24 11 13 1003.6 1003.4 -
22/03:30pm 27.4 30.5 27.4 100 0.0 E 26 32 14 17 1003.6 1003.4 -
22/03:00pm 27.6 30.9 27.6 100 0.0 ENE 26 32 14 17 1003.6 1003.4 -
22/02:30pm 27.3 31.1 27.3 100 0.0 E 22 26 12 14 1003.5 1003.3 -
22/02:00pm 26.8 29.9 26.8 100 0.0 NE 24 30 13 16 1004.1 1003.9 -
22/01:30pm 26.2 27.2 26.2 100 0.0 NE 33 41 18 22 1004.5 1004.3 -
22/01:00pm 26.1 24.5 26.1 100 0.0 NE 46 57 25 31 1004.5 1004.3 -
22/12:30pm 26.3 25.8 26.3 100 0.0 ENE 41 48 22 26 1005.4 1005.2 -
22/12:00pm 27.6 28.0 27.6 100 0.0 E 41 54 22 29 1005.1 1004.9 -
22/11:30am 29.2 32.5 29.2 100 0.0 E 32 37 17 20 1005.5 1005.3 -
22/11:00am 29.3 32.1 29.3 100 0.0 E 35 41 19 22 1005.7 1005.5 -
22/10:30am 28.4 30.5 28.4 100 0.0 ESE 35 43 19 23 1005.8 1005.6 -
22/10:00am 28.0 29.4 28.0 100 0.0 ESE 37 41 20 22 1006.3 1006.1 -
22/09:30am 27.8 28.3 27.8 100 0.0 ESE 41 50 22 27 1006.6 1006.4 -
22/09:00am 27.8 28.3 27.8 100 0.0 ESE 41 48 22 26 1006.8 1006.6 -
22/08:30am 27.6 27.4 27.6 100 0.0 ESE 44 50 24 27 1006.7 1006.5 -
22/08:00am 27.0 26.6 27.0 100 0.0 ESE 43 48 23 26 1006.4 1006.2 -
22/07:30am 26.4 27.7 26.4 100 0.0 ESE 32 35 17 19 1006.2 1006.0 -
22/07:00am 26.3 28.7 26.3 100 0.0 ESE 26 32 14 17 1005.8 1005.6 -
22/06:30am 26.0 29.3 26.0 100 0.0 ESE 20 26 11 14 1005.8 1005.6 -
22/06:00am 25.9 29.3 25.9 100 0.0 E 19 22 10 12 1005.6 1005.4 -
22/05:30am 26.0 30.6 26.0 100 0.0 ESE 13 17 7 9 1005.4 1005.2 -
22/05:00am 25.6 31.1 25.6 100 0.0 ENE 7 9 4 5 1005.6 1005.4 -
22/04:30am 25.2 29.7 25.2 100 0.0 NNE 11 15 6 8 1005.3 1005.1 -
22/04:00am 24.9 27.5 24.9 100 0.0 N 20 24 11 13 1005.5 1005.3 -
22/03:41am 24.7 23.6 24.7 100 0.0 NNE 39 57 21 31 1006.0 1005.8 -
22/03:30am 26.5 28.2 26.5 100 0.0 N 30 65 16 35 1005.2 1005.0 -
22/03:28am 27.6 32.0 27.6 100 0.0 NNW 20 59 11 32 1005.5 1005.3 -
22/03:00am 28.3 33.4 28.3 100 0.0 NW 19 26 10 14 1005.8 1005.6 -
22/02:30am 29.0 38.0 28.7 98 0.2 CALM 0 0 0 0 1005.4 1005.2 -
22/02:00am 29.1 38.2 28.8 98 0.2 CALM 0 0 0 0 1005.5 1005.3 -
22/01:30am 28.9 37.8 28.6 98 0.2 CALM 0 0 0 0 1005.7 1005.5 -
22/01:00am 29.1 37.9 28.4 96 0.5 CALM 0 0 0 0 1006.0 1005.8 -
22/12:30am 29.6 37.8 28.7 95 0.7 N 4 6 2 3 1006.8 1006.6 -
22/12:00am 29.5 38.1 28.2 93 1.0 CALM 0 0 0 0 1006.7 1006.5 -
 
Date/Time
WST
Temp
°C
App
Temp
°C
Dew
Point
°C
Rel
Hum
%
Delta-T
°C
Wind Press
QNH
hPa
Press
MSL
hPa
Rain since
9am
mm
Dir  Spd
km/h
Gust
km/h
Spd
kts
Gust
kts
21/11:30pm 29.7 37.3 28.4 93 1.0 NE 6 7 3 4 1007.3 1007.1 -
21/11:00pm 29.5 38.4 28.6 95 0.7 CALM 0 0 0 0 1007.3 1007.1 -
21/10:30pm 29.1 37.5 28.4 96 0.5 SSW 2 4 1 2 1007.2 1007.0 -
21/10:00pm 29.2 37.1 28.3 95 0.7 SW 4 6 2 3 1007.3 1007.1 -
21/09:30pm 29.3 37.2 28.2 94 0.8 WSW 4 4 2 2 1007.3 1007.1 -
21/09:00pm 29.2 36.7 28.5 96 0.5 W 7 7 4 4 1007.1 1006.9 -
21/08:30pm 29.3 36.6 28.2 94 0.8 WNW 7 9 4 5 1006.9 1006.7 -
21/08:00pm 29.4 37.2 28.1 93 0.9 W 4 7 2 4 1006.9 1006.7 -
21/07:30pm 29.7 37.1 28.1 91 1.2 NW 6 9 3 5 1006.6 1006.4 -
21/07:00pm 30.1 36.7 28.3 90 1.3 NNW 11 15 6 8 1006.2 1006.0 -
21/06:30pm 30.0 37.2 28.6 92 1.0 NW 9 13 5 7 1005.7 1005.5 -
21/06:00pm 30.5 36.1 27.9 86 1.9 NNW 15 17 8 9 1005.4 1005.2 -
21/05:30pm 31.0 36.2 28.4 86 1.9 N 19 20 10 11 1005.2 1005.0 -
21/05:00pm 31.4 36.4 27.7 81 2.7 N 17 22 9 12 1004.7 1004.5 -
21/04:30pm 31.4 36.9 28.8 86 1.9 N 19 20 10 11 1004.4 1004.2 -
21/04:00pm 31.9 37.2 28.6 83 2.4 N 19 22 10 12 1004.5 1004.3 -
21/03:30pm 31.8 37.0 27.9 80 2.8 N 17 20 9 11 1004.7 1004.5 -
21/03:00pm 31.5 37.5 27.4 79 3.0 N 11 13 6 7 1005.0 1004.8 -
21/02:30pm 31.6 37.4 27.7 80 2.8 N 13 15 7 8 1005.3 1005.1 -
21/02:00pm 32.3 37.3 27.1 74 3.8 N 15 17 8 9 1005.6 1005.4 -
21/01:30pm 32.9 39.0 27.6 73 3.9 N 11 15 6 8 1005.5 1005.3 -
21/01:00pm 32.5 38.8 27.3 74 3.8 N 9 13 5 7 1005.6 1005.4 -
21/12:30pm 32.2 39.6 28.1 79 3.0 N 6 9 3 5 1005.7 1005.5 -
21/12:00pm 32.6 40.4 28.9 81 2.7 N 7 11 4 6 1006.3 1006.1 -
21/11:30am 32.8 40.8 29.1 81 2.7 N 7 11 4 6 1006.7 1006.5 -
21/11:00am 32.2 40.3 29.8 87 1.8 N 9 13 5 7 1007.3 1007.1 -
21/10:30am 32.2 40.7 29.8 87 1.8 N 7 9 4 5 1007.6 1007.4 -
21/10:00am 32.0 40.0 29.2 85 2.1 NNE 7 9 4 5 1008.0 1007.8 -
21/09:30am 31.4 39.8 29.4 89 1.5 N 6 9 3 5 1007.5 1007.3 -
21/09:00am 32.0 40.8 30.1 90 1.4 W 7 11 4 6 1007.5 1007.3 -
21/08:30am 31.4 40.2 30.1 93 1.0 W 7 11 4 6 1007.4 1007.2 -

Other Formats:

Comma delimited format used in spreadsheet applications
http://www.bom.gov.au/fwo/IDW60801/IDW60801.94307.axf

JavaScript Object Notation format (JSON) in row-major order
http://www.bom.gov.au/fwo/IDW60801/IDW60801.94307.json